Terminal Aerodrome Forecast
Issued by NWS Binghamton, NY

Home | Current Version | Previous Version | Text Only | Print | Product List | Glossary On
Versions: 1 2 3 4 5 6 7 8 9 10 11 12 13 14 15 16 17 18
000
FTUS41 KBGM 120540
TAFBGM
TAF
KBGM 120540Z 1206/1306 15010KT P6SM -SN OVC035
      TEMPO 1207/1210 2SM -SN OVC020
     FM121000 16012KT 4SM -SN OVC015
      TEMPO 1210/1213 1 1/2SM -SN OVC009
     FM121400 19011KT P6SM OVC015
     FM121800 25009G18KT 2SM -SHSN OVC015
     FM122100 29013G24KT P6SM -SHSN OVC025=

USA.gov is the U.S. government's official web portal to all federal, state and local government web resources and services.